^^
Saratoga-Weather Station Historical Data
Daily Summary for August 3, 2020 Units:  English    Metric   Both
Daily Weekly Monthly Yearly Custom
  High: Low: Average:
Temperature: 53.6 °F 38.7 °F 45.9 °F
Dew Point: 41.9 °F 31.1 °F 36 °F
Humidity: 81% 55% 69%
Wind Speed: 11mph 0mph 2.5mph
Wind Gust: 13mph - -
Wind- - West
Pressure: 30.1 in 29.9 in -
Precipitation: 0 in    
Historical Graphs
 
 
Tabular Data for August 3, 2020
Time Temperature Dew Point Pressure Wind Wind Speed Wind Gust Humidity Rainfall Rate (Hourly) solar
00:04 40.6 °F 31.6 °F 29.9 in Calm   1 mph 70% 0 in 0 W/m2
00:09 40.3 °F 31.6 °F 29.9 in Calm   2 mph 71% 0 in 0 W/m2
00:14 39.9 °F 31.6 °F 29.9 in Calm   1 mph 72% 0 in 0 W/m2
00:19 39.6 °F 31.3 °F 29.9 in West 0.9 mph 1 mph 72% 0 in 0 W/m2
00:24 39.4 °F 31.5 °F 29.9 in Calm     73% 0 in 0 W/m2
00:29 39 °F 31.1 °F 29.9 in Calm     73% 0 in 0 W/m2
00:34 38.8 °F 31.3 °F 29.9 in Calm     74% 0 in 0 W/m2
00:39 38.7 °F 31.5 °F 30 in WNW 2 mph 6 mph 75% 0 in 0 W/m2
00:44 39.4 °F 32.2 °F 30 in NW 2.9 mph 4 mph 75% 0 in 0 W/m2
00:49 39.9 °F 32.7 °F 30 in West 2 mph 2 mph 75% 0 in 0 W/m2
00:54 40.5 °F 32.9 °F 29.9 in WNW 0.9 mph 3 mph 74% 0 in 0 W/m2
00:59 40.6 °F 32.7 °F 29.9 in West 6 mph 8 mph 73% 0 in 0 W/m2
01:04 41.2 °F 33.3 °F 29.9 in West 6 mph 6 mph 73% 0 in 0 W/m2
01:09 41.2 °F 32.9 °F 29.9 in WNW 2 mph 7 mph 72% 0 in 0 W/m2
01:14 41.4 °F 33.1 °F 29.9 in WNW 2 mph 7 mph 72% 0 in 0 W/m2
01:19 41.2 °F 32.9 °F 29.9 in WNW 2 mph 7 mph 72% 0 in 0 W/m2
01:24 41.2 °F 32.9 °F 29.9 in NW 2.9 mph 3 mph 72% 0 in 0 W/m2
01:29 41.2 °F 32.9 °F 29.9 in NW 2.9 mph 6 mph 72% 0 in 0 W/m2
01:34 41.2 °F 32.9 °F 29.9 in WNW 2 mph 9 mph 72% 0 in 0 W/m2
01:39 41.2 °F 32.9 °F 29.9 in NW 2 mph 4 mph 72% 0 in 0 W/m2
01:45 40.6 °F 32.4 °F 29.9 in NNW 0.9 mph 9 mph 72% 0 in 0 W/m2
01:50 40.3 °F 32.4 °F 29.9 in Calm   1 mph 73% 0 in 0 W/m2
01:55 39.9 °F 32.4 °F 29.9 in WNW 0.9 mph 3 mph 74% 0 in 0 W/m2
02:00 40.1 °F 32.5 °F 29.9 in West 6.9 mph 9 mph 74% 0 in 0 W/m2
02:05 40.6 °F 33.1 °F 29.9 in NW 2 mph 8 mph 74% 0 in 0 W/m2
02:10 40.8 °F 32.9 °F 29.9 in NW 2.9 mph 9 mph 73% 0 in 0 W/m2
02:15 41 °F 32.7 °F 29.9 in West 2 mph 5 mph 72% 0 in 0 W/m2
02:20 41.2 °F 32.9 °F 29.9 in West 4 mph 8 mph 72% 0 in 0 W/m2
02:25 41.5 °F 33.3 °F 29.9 in West 2 mph 8 mph 72% 0 in 0 W/m2
02:30 41.5 °F 32.9 °F 29.9 in West 6.9 mph 9 mph 71% 0 in 0 W/m2
02:35 41.4 °F 32.7 °F 29.9 in WNW 8.9 mph 9 mph 71% 0 in 0 W/m2
02:40 41.4 °F 32.7 °F 29.9 in West 8.1 mph 8 mph 71% 0 in 0 W/m2
02:45 41.4 °F 32.7 °F 29.9 in West 8.1 mph 10 mph 71% 0 in 0 W/m2
02:50 41.2 °F 32.9 °F 29.9 in NW 6.9 mph 10 mph 72% 0 in 0 W/m2
02:55 41.2 °F 32.9 °F 29.9 in WSW 8.1 mph 10 mph 72% 0 in 0 W/m2
03:00 41 °F 32.7 °F 29.9 in NW 4.9 mph 13 mph 72% 0 in 0 W/m2
03:05 41.2 °F 32.9 °F 29.9 in West 2 mph 8 mph 72% 0 in 0 W/m2
03:10 40.8 °F 32.5 °F 29.9 in West 2.9 mph 7 mph 72% 0 in 0 W/m2
03:15 40.8 °F 32.5 °F 29.9 in West 8.1 mph 10 mph 72% 0 in 0 W/m2
03:20 40.6 °F 32.7 °F 29.9 in West 6 mph 9 mph 73% 0 in 0 W/m2
03:25 40.6 °F 32.7 °F 29.9 in WSW 4 mph 7 mph 73% 0 in 0 W/m2
03:30 40.5 °F 32.5 °F 29.9 in WNW 6 mph 11 mph 73% 0 in 0 W/m2
03:35 40.5 °F 32.5 °F 29.9 in WNW 4.9 mph 13 mph 73% 0 in 0 W/m2
03:40 40.5 °F 32.9 °F 29.9 in WNW 2 mph 11 mph 74% 0 in 0 W/m2
03:45 40.5 °F 32.9 °F 29.9 in West 6.9 mph 13 mph 74% 0 in 0 W/m2
03:50 40.5 °F 32.9 °F 29.9 in WNW 4.9 mph 6 mph 74% 0 in 0 W/m2
03:55 40.6 °F 33.3 °F 29.9 in West 6.9 mph 8 mph 75% 0 in 0 W/m2
04:00 40.6 °F 33.1 °F 29.9 in WSW 4 mph 7 mph 74% 0 in 0 W/m2
04:05 40.8 °F 33.3 °F 29.9 in West 6.9 mph 10 mph 74% 0 in 0 W/m2
04:10 40.6 °F 33.1 °F 29.9 in West 2.9 mph 8 mph 74% 0 in 0 W/m2
04:15 40.6 °F 33.3 °F 29.9 in WNW 2.9 mph 10 mph 75% 0 in 0 W/m2
04:20 40.6 °F 33.3 °F 29.9 in WNW 6 mph 8 mph 75% 0 in 0 W/m2
04:25 40.6 °F 33.3 °F 29.9 in West 4 mph 5 mph 75% 0 in 0 W/m2
04:30 40.6 °F 33.3 °F 29.9 in WNW 2 mph 2 mph 75% 0 in 0 W/m2
04:35 40.6 °F 33.6 °F 29.9 in NNW 0.9 mph 2 mph 76% 0 in 0 W/m2
04:40 40.6 °F 33.6 °F 29.9 in Calm   2 mph 76% 0 in 0 W/m2
04:45 40.5 °F 33.4 °F 29.9 in Calm   4 mph 76% 0 in 0 W/m2
04:50 40.5 °F 33.4 °F 29.9 in NW 2.9 mph 7 mph 76% 0 in 0 W/m2
04:55 40.6 °F 34 °F 29.9 in Calm   5 mph 77% 0 in 0 W/m2
05:00 40.6 °F 34 °F 29.9 in NNW 2 mph 2 mph 77% 0 in 0 W/m2
05:05 40.6 °F 34 °F 29.9 in ESE 2 mph 6 mph 77% 0 in 0 W/m2
05:10 40.6 °F 34 °F 29.9 in NNE 2.9 mph 3 mph 77% 0 in 0 W/m2
05:15 40.5 °F 33.8 °F 30 in NNW 2 mph 5 mph 77% 0 in 0 W/m2
05:20 40.3 °F 33.6 °F 29.9 in ESE 2.9 mph 3 mph 77% 0 in 0 W/m2
05:25 40.3 °F 33.6 °F 29.9 in NNE 2 mph 2 mph 77% 0 in 0 W/m2
05:31 40.1 °F 33.4 °F 29.9 in East 2.9 mph 3 mph 77% 0 in 0 W/m2
05:36 39.9 °F 33.6 °F 29.9 in SSE 0.9 mph 4 mph 78% 0 in 0 W/m2
05:41 39.9 °F 33.6 °F 29.9 in East 0.9 mph 3 mph 78% 0 in 0 W/m2
05:46 39.7 °F 33.4 °F 29.9 in Calm   2 mph 78% 0 in 0 W/m2
05:51 39.7 °F 33.4 °F 29.9 in WSW 2 mph 2 mph 78% 0 in 0 W/m2
05:56 39.7 °F 33.8 °F 30 in Calm   2 mph 79% 0 in 0 W/m2
06:01 39.7 °F 33.8 °F 30 in East 0.9 mph 3 mph 79% 0 in 0 W/m2
06:06 39.7 °F 33.8 °F 30 in Calm   2 mph 79% 0 in 0 W/m2
06:11 39.7 °F 33.8 °F 30 in WNW 0.9 mph 2 mph 79% 0 in 0 W/m2
06:16 39.7 °F 33.8 °F 30 in WNW 0.9 mph 5 mph 79% 0 in 0 W/m2
06:21 39.7 °F 33.8 °F 30 in Calm   1 mph 79% 0 in 0 W/m2
06:26 39.7 °F 33.8 °F 30 in Calm   3 mph 79% 0 in 0 W/m2
06:31 39.7 °F 33.8 °F 30 in WNW 2.9 mph 3 mph 79% 0 in 0 W/m2
06:36 39.7 °F 33.8 °F 30 in WNW 0.9 mph 2 mph 79% 0 in 0 W/m2
06:41 39.6 °F 33.6 °F 30 in Calm   1 mph 79% 0 in 0 W/m2
06:46 39.6 °F 33.6 °F 30 in NE 0.9 mph 2 mph 79% 0 in 0 W/m2
06:51 39.6 °F 33.6 °F 30 in NNW 0.9 mph 2 mph 79% 0 in 0 W/m2
06:56 39.6 °F 33.6 °F 30 in Calm   1 mph 79% 0 in 0 W/m2
07:01 39.6 °F 33.6 °F 30 in Calm   2 mph 79% 0 in 0 W/m2
07:06 39.6 °F 34 °F 30 in East 2 mph 3 mph 80% 0 in 0 W/m2
07:11 39.6 °F 34 °F 30 in East 2 mph 3 mph 80% 0 in 0 W/m2
07:16 39.6 °F 34 °F 30 in ENE 0.9 mph 2 mph 80% 0 in 0 W/m2
07:21 39.6 °F 34 °F 30 in NE 2.9 mph 3 mph 80% 0 in 0 W/m2
07:26 39.6 °F 34 °F 30 in East 0.9 mph 3 mph 80% 0 in 5 W/m2
07:31 39.7 °F 34.2 °F 30 in East 2.9 mph 4 mph 80% 0 in 5 W/m2
07:36 39.7 °F 34.2 °F 30 in East 0.9 mph 1 mph 80% 0 in 9 W/m2
07:41 39.7 °F 34.2 °F 30 in Calm   1 mph 80% 0 in 14 W/m2
07:46 39.7 °F 34.3 °F 30 in Calm   1 mph 81% 0 in 18 W/m2
07:51 39.7 °F 34.2 °F 30 in Calm     80% 0 in 21 W/m2
07:56 39.7 °F 34.3 °F 30 in West 2 mph 2 mph 81% 0 in 25 W/m2
08:01 39.9 °F 34.5 °F 30 in Calm   2 mph 81% 0 in 28 W/m2
08:06 39.9 °F 34.3 °F 30 in NE 2.9 mph 4 mph 80% 0 in 32 W/m2
08:11 40.1 °F 34.5 °F 30 in East 0.9 mph 1 mph 80% 0 in 33 W/m2
08:16 40.3 °F 34.5 °F 30 in ENE 2.9 mph 3 mph 80% 0 in 37 W/m2
08:21 40.3 °F 34.9 °F 30 in Calm   2 mph 81% 0 in 42 W/m2
08:26 40.5 °F 35.1 °F 30 in Calm   1 mph 81% 0 in 47 W/m2
08:31 40.6 °F 35.2 °F 30 in SW 0.9 mph 4 mph 81% 0 in 54 W/m2
08:37 40.6 °F 34.9 °F 30 in West 2.9 mph 3 mph 80% 0 in 56 W/m2
08:42 40.6 °F 34.9 °F 30 in SSE 2 mph 3 mph 80% 0 in 56 W/m2
08:47 40.8 °F 35.1 °F 30 in West 6 mph 6 mph 80% 0 in 40 W/m2
08:52 40.8 °F 35.1 °F 30 in North 0.9 mph 2 mph 80% 0 in 49 W/m2
08:57 41 °F 35.2 °F 30 in WNW 0.9 mph 3 mph 80% 0 in 60 W/m2
09:02 41.2 °F 35.4 °F 30 in WNW 0.9 mph 3 mph 80% 0 in 62 W/m2
09:07 41.2 °F 35.4 °F 30 in North 0.9 mph 2 mph 80% 0 in 81 W/m2
09:12 41.4 °F 35.6 °F 30 in NNW 2 mph 4 mph 80% 0 in 97 W/m2
09:17 41.5 °F 35.8 °F 30 in NW 0.9 mph 3 mph 80% 0 in 111 W/m2
09:22 41.5 °F 35.6 °F 30 in WNW 4 mph 4 mph 79% 0 in 97 W/m2
09:27 41.7 °F 35.8 °F 30 in NW 2.9 mph 5 mph 79% 0 in 84 W/m2
09:32 41.9 °F 35.8 °F 30 in WNW 0.9 mph 7 mph 79% 0 in 88 W/m2
09:37 42.1 °F 36 °F 30 in WNW 4.9 mph 5 mph 79% 0 in 69 W/m2
09:42 42.1 °F 35.8 °F 30 in West 2.9 mph 6 mph 78% 0 in 63 W/m2
09:47 42.3 °F 36 °F 30 in West 0.9 mph 6 mph 78% 0 in 70 W/m2
09:52 42.3 °F 36.1 °F 30 in SSW 0.9 mph 3 mph 79% 0 in 77 W/m2
09:57 42.4 °F 36.3 °F 30 in NW 0.9 mph 4 mph 79% 0 in 113 W/m2
10:02 42.4 °F 36.3 °F 30 in WNW 2.9 mph 3 mph 79% 0 in 113 W/m2
10:07 42.8 °F 36.7 °F 30 in West 2 mph 4 mph 79% 0 in 116 W/m2
10:12 43 °F 36.9 °F 30 in NNW 2.9 mph 3 mph 79% 0 in 128 W/m2
10:17 43.2 °F 37 °F 30 in Calm   5 mph 79% 0 in 142 W/m2
10:22 43.3 °F 37.2 °F 30 in WNW 4 mph 4 mph 79% 0 in 149 W/m2
10:27 43.5 °F 37 °F 30 in NW 2 mph 2 mph 78% 0 in 158 W/m2
10:32 43.9 °F 37.8 °F 30 in SSW 0.9 mph 1 mph 79% 0 in 178 W/m2
10:37 44.1 °F 37.6 °F 30 in WNW 0.9 mph 3 mph 78% 0 in 199 W/m2
10:42 44.4 °F 37.9 °F 30 in WNW 4 mph 4 mph 78% 0 in 211 W/m2
10:47 44.6 °F 38.1 °F 30 in NW 2 mph 6 mph 78% 0 in 216 W/m2
10:52 45 °F 38.5 °F 30 in WNW 2.9 mph 4 mph 78% 0 in 230 W/m2
10:57 45.1 °F 38.7 °F 30 in NW 2.9 mph 4 mph 78% 0 in 258 W/m2
11:02 45.1 °F 38.3 °F 30 in WNW 0.9 mph 4 mph 77% 0 in 264 W/m2
11:07 45.5 °F 39 °F 30 in Calm   3 mph 78% 0 in 279 W/m2
11:12 45.9 °F 39.4 °F 30 in NW 4 mph 10 mph 78% 0 in 255 W/m2
11:17 45.9 °F 39 °F 30 in NW 4 mph 6 mph 77% 0 in 246 W/m2
11:22 46 °F 39.2 °F 30 in WNW 4 mph 5 mph 77% 0 in 260 W/m2
11:27 46 °F 39.6 °F 30 in NW 2 mph 7 mph 78% 0 in 269 W/m2
11:32 46.2 °F 39.4 °F 30 in WSW 2.9 mph 4 mph 77% 0 in 285 W/m2
11:37 46.6 °F 39.7 °F 30 in NW 2.9 mph 3 mph 77% 0 in 283 W/m2
11:42 46.8 °F 39.9 °F 30 in SW 2.9 mph 7 mph 77% 0 in 297 W/m2
11:48 46.9 °F 40.1 °F 30 in West 6 mph 7 mph 77% 0 in 311 W/m2
11:53 46.9 °F 40.1 °F 30 in WSW 4.9 mph 5 mph 77% 0 in 330 W/m2
11:58 47.1 °F 40.3 °F 30 in NW 2.9 mph 7 mph 77% 0 in 329 W/m2
12:03 47.5 °F 40.3 °F 30 in West 2.9 mph 8 mph 76% 0 in 345 W/m2
12:08 47.7 °F 40.5 °F 30 in WNW 4.9 mph 9 mph 76% 0 in 359 W/m2
12:13 47.8 °F 40.6 °F 30 in WNW 6 mph 8 mph 76% 0 in 355 W/m2
12:18 47.8 °F 40.3 °F 30 in WNW 0.9 mph 9 mph 75% 0 in 357 W/m2
12:23 48.2 °F 40.6 °F 30 in WSW 4.9 mph 7 mph 75% 0 in 373 W/m2
12:28 48.6 °F 41 °F 30 in WNW 2.9 mph 9 mph 75% 0 in 399 W/m2
12:33 48.9 °F 40.6 °F 30 in NW 2.9 mph 9 mph 73% 0 in 455 W/m2
12:38 49.3 °F 41 °F 30 in NW 0.9 mph 2 mph 73% 0 in 466 W/m2
12:43 49.8 °F 41.2 °F 30 in West 2.9 mph 4 mph 72% 0 in 531 W/m2
12:48 50.5 °F 41.9 °F 30 in NNW 0.9 mph 3 mph 72% 0 in 656 W/m2
12:54 51.1 °F 41.7 °F 30 in NNW 2 mph 3 mph 70% 0 in 441 W/m2
12:59 51.4 °F 41.2 °F 30 in West 2.9 mph 6 mph 68% 0 in 587 W/m2
13:04 51.4 °F 41.2 °F 30 in WNW 2.9 mph 4 mph 68% 0 in 459 W/m2
13:09 51.3 °F 41 °F 30 in West 2.9 mph 11 mph 68% 0 in 464 W/m2
13:14 51.4 °F 41.5 °F 30 in SSE 2 mph 7 mph 69% 0 in 464 W/m2
13:19 52 °F 41.7 °F 30 in WNW 2 mph 9 mph 68% 0 in 466 W/m2
13:24 52.5 °F 41.2 °F 30 in WSW 4.9 mph 9 mph 65% 0 in 545 W/m2
13:29 52.9 °F 41.9 °F 30 in WNW 2.9 mph 8 mph 66% 0 in 469 W/m2
13:34 52.5 °F 40.6 °F 30 in WNW 2.9 mph 9 mph 64% 0 in 503 W/m2
13:39 52.3 °F 41 °F 30 in NNW 2 mph 8 mph 65% 0 in 492 W/m2
13:44 52.7 °F 41.7 °F 30 in North 0.9 mph 4 mph 66% 0 in 475 W/m2
13:49 53.2 °F 41.4 °F 30 in Calm   7 mph 64% 0 in 441 W/m2
13:54 53.6 °F 41.4 °F 30 in NW 2 mph 8 mph 63% 0 in 450 W/m2
13:59 53.6 °F 40.5 °F 30 in West 4 mph 6 mph 61% 0 in 362 W/m2
14:04 53.4 °F 40.3 °F 30 in West 2 mph 11 mph 61% 0 in 322 W/m2
14:09 53.6 °F 40.8 °F 30 in NW 2.9 mph 3 mph 62% 0 in 211 W/m2
14:14 53.2 °F 40.1 °F 30 in West 8.1 mph 9 mph 61% 0 in 229 W/m2
14:19 53.1 °F 40.5 °F 30 in WNW 4 mph 7 mph 62% 0 in 410 W/m2
14:25 53.1 °F 39.6 °F 30 in NW 4.9 mph 9 mph 60% 0 in 272 W/m2
14:30 52.9 °F 39.7 °F 30 in NW 2.9 mph 7 mph 61% 0 in 243 W/m2
14:35 52.9 °F 39 °F 30 in West 2 mph 5 mph 59% 0 in 183 W/m2
14:40 52.9 °F 39 °F 30 in WNW 4 mph 7 mph 59% 0 in 160 W/m2
14:45 52.7 °F 38.8 °F 30 in WNW 2.9 mph 8 mph 59% 0 in 227 W/m2
14:50 52.9 °F 39 °F 30 in NW 4 mph 8 mph 59% 0 in 297 W/m2
14:55 53.1 °F 39.2 °F 30 in West 2.9 mph 8 mph 59% 0 in 322 W/m2
15:00 53.2 °F 39.2 °F 30 in West 6.9 mph 9 mph 59% 0 in 279 W/m2
15:05 53.2 °F 39.2 °F 30 in WNW 4.9 mph 7 mph 59% 0 in 276 W/m2
15:10 53.2 °F 38.5 °F 30 in West 8.1 mph 9 mph 57% 0 in 276 W/m2
15:15 53.2 °F 38.5 °F 30 in West 2 mph 4 mph 57% 0 in 253 W/m2
15:20 53.4 °F 38.5 °F 30 in NW 4 mph 4 mph 57% 0 in 206 W/m2
15:25 53.4 °F 38.5 °F 30 in WNW 8.1 mph 8 mph 57% 0 in 132 W/m2
15:30 53.1 °F 37.8 °F 30 in WNW 2.9 mph 3 mph 56% 0 in 118 W/m2
15:35 53.1 °F 38.3 °F 30 in WNW 6.9 mph 13 mph 57% 0 in 104 W/m2
15:40 52.5 °F 38.1 °F 30 in West 8.1 mph 11 mph 58% 0 in 83 W/m2
15:45 52.3 °F 37.9 °F 30 in West 6.9 mph 13 mph 58% 0 in 84 W/m2
15:50 52.2 °F 38.3 °F 30 in WNW 2.9 mph 4 mph 59% 0 in 93 W/m2
15:55 52.2 °F 38.3 °F 30 in WNW 4 mph 13 mph 59% 0 in 104 W/m2
16:00 52.2 °F 38.3 °F 30 in WNW 8.1 mph 10 mph 59% 0 in 120 W/m2
16:05 52.2 °F 38.3 °F 30 in West 2.9 mph 11 mph 59% 0 in 123 W/m2
16:10 52.2 °F 38.7 °F 30 in WNW 6 mph 9 mph 60% 0 in 128 W/m2
16:15 52.2 °F 38.7 °F 30 in WNW 2 mph 8 mph 60% 0 in 113 W/m2
16:20 52.2 °F 38.3 °F 30 in WNW 6.9 mph 10 mph 59% 0 in 109 W/m2
16:25 52.2 °F 38.7 °F 30 in NNW 2.9 mph 8 mph 60% 0 in 105 W/m2
16:30 52.2 °F 38.7 °F 30 in WNW 4 mph 7 mph 60% 0 in 104 W/m2
16:35 52.2 °F 38.7 °F 30 in WSW 4 mph 8 mph 60% 0 in 109 W/m2
16:40 52.2 °F 38.3 °F 30 in WNW 4 mph 6 mph 59% 0 in 121 W/m2
16:45 52.2 °F 37.8 °F 30 in NW 2.9 mph 9 mph 58% 0 in 139 W/m2
16:50 52.2 °F 37.4 °F 30 in WNW 11 mph 11 mph 57% 0 in 155 W/m2
16:55 52.2 °F 37.4 °F 30 in NW 4 mph 8 mph 57% 0 in 151 W/m2
17:00 52.2 °F 37.4 °F 30 in NW 4 mph 10 mph 57% 0 in 137 W/m2
17:05 52 °F 37.2 °F 30 in WNW 4 mph 8 mph 57% 0 in 118 W/m2
17:10 52 °F 37.2 °F 30 in WSW 4.9 mph 8 mph 57% 0 in 93 W/m2
17:15 52 °F 37.6 °F 30 in WNW 2.9 mph 6 mph 58% 0 in 84 W/m2
17:20 52 °F 37.6 °F 30 in WNW 4 mph 8 mph 58% 0 in 95 W/m2
17:25 51.8 °F 37.6 °F 30.1 in West 2 mph 5 mph 58% 0 in 98 W/m2
17:30 51.8 °F 37.9 °F 30.1 in West 2 mph 7 mph 59% 0 in 91 W/m2
17:35 51.8 °F 37.9 °F 30.1 in NNW 2.9 mph 8 mph 59% 0 in 90 W/m2
17:40 51.6 °F 37.8 °F 30.1 in SW 2.9 mph 7 mph 59% 0 in 90 W/m2
17:45 51.6 °F 38.1 °F 30 in NNW 2 mph 8 mph 60% 0 in 79 W/m2
17:50 51.8 °F 38.3 °F 30.1 in West 2.9 mph 6 mph 60% 0 in 90 W/m2
17:55 51.6 °F 38.1 °F 30.1 in NW 2 mph 8 mph 60% 0 in 109 W/m2
18:00 51.8 °F 37.9 °F 30.1 in WNW 4.9 mph 7 mph 59% 0 in 127 W/m2
18:05 52 °F 38.5 °F 30.1 in WNW 2 mph 8 mph 60% 0 in 137 W/m2
18:10 52 °F 37.6 °F 30.1 in WNW 6 mph 8 mph 58% 0 in 146 W/m2
18:15 52.2 °F 37.8 °F 30.1 in NW 2 mph 4 mph 58% 0 in 139 W/m2
18:20 52.3 °F 37.9 °F 30.1 in West 2.9 mph 10 mph 58% 0 in 135 W/m2
18:25 52.3 °F 37.9 °F 30.1 in WNW 2.9 mph 4 mph 58% 0 in 137 W/m2
18:30 52.5 °F 38.1 °F 30.1 in NW 2.9 mph 8 mph 58% 0 in 134 W/m2
18:35 52.5 °F 37.8 °F 30.1 in WNW 2 mph 6 mph 57% 0 in 139 W/m2
18:40 52.3 °F 37.9 °F 30.1 in WNW 2 mph 8 mph 58% 0 in 120 W/m2
18:45 52.3 °F 37.6 °F 30.1 in West 4 mph 6 mph 57% 0 in 109 W/m2
18:50 52.3 °F 37.6 °F 30.1 in WNW 0.9 mph 8 mph 57% 0 in 91 W/m2
18:55 52.2 °F 37.4 °F 30.1 in WSW 4 mph 7 mph 57% 0 in 95 W/m2
19:00 52.2 °F 37.4 °F 30.1 in Calm   2 mph 57% 0 in 83 W/m2
19:06 52.3 °F 37.6 °F 30.1 in WNW 2.9 mph 7 mph 57% 0 in 72 W/m2
19:11 52.2 °F 37.4 °F 30.1 in West 2.9 mph 4 mph 57% 0 in 70 W/m2
19:16 52.2 °F 37.4 °F 30.1 in West 4 mph 7 mph 57% 0 in 62 W/m2
19:21 52 °F 37.2 °F 30.1 in West 0.9 mph 3 mph 57% 0 in 42 W/m2
19:26 51.8 °F 37.6 °F 30.1 in NW 4.9 mph 6 mph 58% 0 in 32 W/m2
19:31 51.6 °F 37.4 °F 30.1 in WNW 0.9 mph 4 mph 58% 0 in 21 W/m2
19:36 51.6 °F 36.9 °F 30.1 in WNW 4 mph 6 mph 57% 0 in 19 W/m2
19:41 51.4 °F 37.2 °F 30.1 in WSW 4.9 mph 6 mph 58% 0 in 14 W/m2
19:46 51.4 °F 36.7 °F 30.1 in West 2.9 mph 6 mph 57% 0 in 12 W/m2
19:51 51.3 °F 37 °F 30.1 in West 2 mph 4 mph 58% 0 in 9 W/m2
19:56 51.3 °F 37 °F 30.1 in West 2 mph 4 mph 58% 0 in 5 W/m2
20:01 51.1 °F 36.3 °F 30.1 in WNW 0.9 mph 4 mph 57% 0 in 5 W/m2
20:06 51.1 °F 36.3 °F 30.1 in WNW 2.9 mph 4 mph 57% 0 in 0 W/m2
20:11 51.1 °F 36 °F 30.1 in West 0.9 mph 4 mph 56% 0 in 0 W/m2
20:16 50.9 °F 35.8 °F 30.1 in WNW 0.9 mph 3 mph 56% 0 in 0 W/m2
20:21 50.9 °F 35.8 °F 30.1 in WNW 0.9 mph 2 mph 56% 0 in 0 W/m2
20:26 50.7 °F 35.6 °F 30.1 in West 0.9 mph 2 mph 56% 0 in 0 W/m2
20:31 50.5 °F 35.4 °F 30.1 in NW 2 mph 2 mph 56% 0 in 0 W/m2
20:36 50.5 °F 35.4 °F 30.1 in Calm   2 mph 56% 0 in 0 W/m2
20:41 50.5 °F 36 °F 30.1 in West 2 mph 2 mph 57% 0 in 0 W/m2
20:46 50.4 °F 35.8 °F 30.1 in WNW 0.9 mph 2 mph 57% 0 in 0 W/m2
20:51 50.4 °F 35.8 °F 30.1 in WNW 2.9 mph 4 mph 57% 0 in 0 W/m2
20:56 50.5 °F 35.4 °F 30.1 in NW 4 mph 7 mph 56% 0 in 0 W/m2
21:01 50.5 °F 35.4 °F 30.1 in WNW 2 mph 3 mph 56% 0 in 0 W/m2
21:06 50.4 °F 35.2 °F 30.1 in WNW 4 mph 4 mph 56% 0 in 0 W/m2
21:11 50.4 °F 35.2 °F 30.1 in WNW 2 mph 7 mph 56% 0 in 0 W/m2
21:16 50.4 °F 34.9 °F 30.1 in West 6 mph 6 mph 55% 0 in 0 W/m2
21:21 50.4 °F 35.2 °F 30.1 in WNW 4 mph 6 mph 56% 0 in 0 W/m2
21:26 50.2 °F 35.1 °F 30.1 in WNW 2 mph 4 mph 56% 0 in 0 W/m2
21:31 50.2 °F 35.1 °F 30.1 in West 2 mph 6 mph 56% 0 in 0 W/m2
21:36 50 °F 34.9 °F 30.1 in West 2 mph 3 mph 56% 0 in 0 W/m2
21:41 49.8 °F 35.2 °F 30.1 in Calm   2 mph 57% 0 in 0 W/m2
21:46 49.6 °F 35.4 °F 30.1 in Calm   2 mph 58% 0 in 0 W/m2
21:51 49.5 °F 35.2 °F 30.1 in West 0.9 mph 2 mph 58% 0 in 0 W/m2
21:56 49.3 °F 35.6 °F 30.1 in West 0.9 mph 1 mph 59% 0 in 0 W/m2
22:01 48.9 °F 35.6 °F 30.1 in Calm     60% 0 in 0 W/m2
22:06 48.7 °F 36 °F 30.1 in Calm     61% 0 in 0 W/m2
22:11 48.2 °F 35.8 °F 30.1 in Calm     62% 0 in 0 W/m2
22:16 47.7 °F 35.2 °F 30.1 in Calm   2 mph 62% 0 in 0 W/m2
22:21 47.1 °F 35.2 °F 30.1 in Calm     63% 0 in 0 W/m2
22:26 46.6 °F 35.1 °F 30.1 in Calm   2 mph 64% 0 in 0 W/m2
22:31 46 °F 34.9 °F 30.1 in Calm     65% 0 in 0 W/m2
22:36 45.5 °F 34.9 °F 30.1 in Calm     66% 0 in 0 W/m2
22:41 45 °F 34.7 °F 30.1 in West 0.9 mph 1 mph 67% 0 in 0 W/m2
22:46 44.4 °F 34.5 °F 30.1 in Calm   2 mph 68% 0 in 0 W/m2
22:51 44.1 °F 34.5 °F 30.1 in Calm     69% 0 in 0 W/m2
22:56 43.5 °F 34.3 °F 30.1 in Calm   2 mph 70% 0 in 0 W/m2
23:01 43.3 °F 34.2 °F 30.1 in Calm   1 mph 70% 0 in 0 W/m2
23:06 43 °F 34.2 °F 30.1 in Calm   1 mph 71% 0 in 0 W/m2
23:11 42.6 °F 34.2 °F 30.1 in Calm     72% 0 in 0 W/m2
23:17 42.4 °F 34 °F 30.1 in Calm   1 mph 72% 0 in 0 W/m2
23:22 42.3 °F 34.2 °F 30.1 in Calm     73% 0 in 0 W/m2
23:27 42.1 °F 34.3 °F 30.1 in Calm     74% 0 in 0 W/m2
23:32 41.7 °F 34 °F 30.1 in Calm     74% 0 in 0 W/m2
23:37 41.5 °F 34.2 °F 30.1 in Calm     75% 0 in 0 W/m2
23:42 41.4 °F 34.3 °F 30.1 in Calm     76% 0 in 0 W/m2
23:47 41.2 °F 34.2 °F 30.1 in Calm     76% 0 in 0 W/m2
23:52 40.8 °F 34.2 °F 30.1 in Calm     77% 0 in 0 W/m2
23:57 40.6 °F 34 °F 30.1 in Calm     77% 0 in 0 W/m2
Juneau County Weather
Compliments of Weather Underground - 4 mb